createdAt,value
2022-10-18T00:01:07.929Z,22.90
2022-10-18T00:03:19.201Z,12.60
2022-10-18T00:05:25.388Z,15.90
2022-10-18T00:07:31.886Z,19.20
2022-10-18T00:09:38.189Z,18.40
2022-10-18T00:11:44.448Z,18.60
2022-10-18T00:13:50.619Z,18.00
2022-10-18T00:16:00.201Z,17.10
2022-10-18T00:18:06.830Z,20.00
2022-10-18T00:20:13.837Z,18.90
2022-10-18T00:22:20.045Z,17.20
2022-10-18T00:24:26.339Z,19.80
2022-10-18T00:26:33.292Z,23.50
2022-10-18T00:28:40.707Z,18.30
2022-10-18T00:30:47.238Z,19.30
2022-10-18T00:32:54.047Z,20.10
2022-10-18T00:35:00.488Z,20.70
2022-10-18T00:37:06.976Z,17.90
2022-10-18T00:39:18.454Z,18.20
2022-10-18T00:41:28.544Z,29.20
2022-10-18T00:43:51.860Z,26.10
2022-10-18T00:45:58.190Z,38.30
2022-10-18T00:48:06.842Z,32.00
2022-10-18T00:50:13.966Z,29.50
2022-10-18T00:52:43.569Z,32.70
2022-10-18T00:54:51.522Z,27.90
2022-10-18T00:56:58.614Z,26.00
2022-10-18T00:59:05.052Z,26.10
2022-10-18T01:01:11.199Z,24.50
2022-10-18T01:03:17.563Z,29.50
2022-10-18T01:05:23.634Z,25.70
2022-10-18T01:07:52.092Z,24.70
2022-10-18T01:10:16.516Z,26.70
2022-10-18T01:12:26.243Z,24.80
2022-10-18T01:14:56.583Z,27.90
2022-10-18T01:17:06.074Z,27.80
2022-10-18T01:19:20.769Z,31.80
2022-10-18T01:21:55.097Z,27.40
2022-10-18T01:24:16.497Z,28.80
2022-10-18T01:26:25.197Z,31.80
2022-10-18T01:28:58.985Z,33.00
2022-10-18T01:31:13.798Z,28.90
2022-10-18T01:33:27.835Z,29.30
2022-10-18T01:35:37.861Z,24.20
2022-10-18T01:37:47.917Z,29.10
2022-10-18T01:39:58.173Z,31.70
2022-10-18T01:42:10.524Z,30.90
2022-10-18T01:44:22.341Z,34.60
2022-10-18T01:46:31.526Z,27.50
2022-10-18T01:48:39.475Z,27.80
2022-10-18T01:50:46.284Z,26.40
2022-10-18T01:52:53.314Z,34.90
2022-10-18T01:55:02.226Z,30.90
2022-10-18T01:57:34.997Z,24.90
2022-10-18T02:00:03.543Z,33.10
2022-10-18T02:02:55.042Z,33.30
2022-10-18T02:05:21.265Z,33.70
2022-10-18T02:07:51.896Z,30.80
2022-10-18T02:10:19.562Z,26.70
2022-10-18T02:12:27.328Z,33.00
2022-10-18T02:14:34.888Z,29.70
2022-10-18T02:16:46.885Z,34.20
2022-10-18T02:19:12.044Z,25.10
2022-10-18T02:21:21.228Z,29.00
2022-10-18T02:23:27.975Z,28.70
2022-10-18T02:25:36.503Z,25.70
2022-10-18T02:27:42.867Z,29.60
2022-10-18T02:29:50.542Z,25.20
2022-10-18T02:32:13.037Z,32.50
2022-10-18T02:34:30.518Z,29.00
2022-10-18T02:36:48.251Z,27.50
2022-10-18T02:39:04.233Z,28.60
2022-10-18T02:41:10.699Z,26.40
2022-10-18T02:43:17.089Z,28.30
2022-10-18T02:45:24.037Z,28.00
2022-10-18T02:47:30.908Z,28.30
2022-10-18T02:49:37.550Z,26.20
2022-10-18T02:51:43.916Z,22.90
2022-10-18T02:53:50.435Z,26.80
2022-10-18T02:55:57.179Z,30.90
2022-10-18T02:58:03.581Z,25.90
2022-10-18T03:00:11.155Z,34.70
2022-10-18T03:02:17.460Z,28.00
2022-10-18T03:04:24.103Z,36.20
2022-10-18T03:06:30.202Z,33.30
2022-10-18T03:08:37.801Z,29.20
2022-10-18T03:10:46.857Z,23.70
2022-10-18T03:12:52.963Z,29.60
2022-10-18T03:14:58.942Z,28.30
2022-10-18T03:17:05.222Z,34.80
2022-10-18T03:19:11.533Z,31.30
2022-10-18T03:21:18.097Z,31.40
2022-10-18T03:23:24.488Z,28.50
2022-10-18T03:25:30.618Z,35.30
2022-10-18T03:27:36.710Z,33.80
2022-10-18T03:29:42.885Z,33.50
2022-10-18T03:31:49.748Z,33.60
2022-10-18T03:33:55.710Z,30.10
2022-10-18T03:36:02.052Z,32.50
2022-10-18T03:38:08.125Z,33.80
2022-10-18T03:40:14.109Z,36.10
2022-10-18T03:42:20.712Z,39.90
2022-10-18T03:44:27.248Z,32.60
2022-10-18T03:46:33.431Z,39.50
2022-10-18T03:48:39.697Z,33.10
2022-10-18T03:50:45.648Z,36.60
2022-10-18T03:52:51.837Z,35.00
2022-10-18T03:54:57.935Z,35.80
2022-10-18T03:57:04.073Z,35.40
2022-10-18T03:59:10.167Z,35.80
2022-10-18T04:01:16.659Z,33.50
2022-10-18T04:03:25.157Z,36.20
2022-10-18T04:05:32.464Z,38.30
2022-10-18T04:07:39.062Z,28.30
2022-10-18T04:09:45.495Z,35.00
2022-10-18T04:11:52.491Z,36.10
2022-10-18T04:13:58.979Z,36.20
2022-10-18T04:16:05.163Z,39.50
2022-10-18T04:18:11.509Z,37.70
2022-10-18T04:20:18.079Z,35.80
2022-10-18T04:22:24.512Z,34.20
2022-10-18T04:24:30.531Z,34.50
2022-10-18T04:26:36.667Z,36.20
2022-10-18T04:28:43.495Z,38.20
2022-10-18T04:30:54.572Z,34.60
2022-10-18T04:33:01.141Z,38.00
2022-10-18T04:35:08.875Z,35.70
2022-10-18T04:37:14.983Z,33.40
2022-10-18T04:39:21.430Z,44.30
2022-10-18T04:41:27.662Z,34.70
2022-10-18T04:43:33.773Z,38.90
2022-10-18T04:45:39.856Z,37.60
2022-10-18T04:47:46.360Z,32.90
2022-10-18T04:49:52.518Z,31.80
2022-10-18T04:51:59.068Z,36.20
2022-10-18T04:54:05.234Z,34.30
2022-10-18T04:56:11.891Z,29.80
2022-10-18T04:58:19.422Z,35.30
2022-10-18T05:00:25.586Z,33.40
2022-10-18T05:02:32.125Z,39.50
2022-10-18T05:04:38.400Z,36.40
2022-10-18T05:06:45.078Z,33.80
2022-10-18T05:08:51.572Z,36.40
2022-10-18T05:10:57.872Z,36.20
2022-10-18T05:13:05.207Z,32.10
2022-10-18T05:15:11.768Z,36.60
2022-10-18T05:17:17.909Z,40.80
2022-10-18T05:19:24.203Z,34.30
2022-10-18T05:21:30.192Z,40.80
2022-10-18T05:23:36.420Z,39.90
2022-10-18T05:25:43.897Z,34.10
2022-10-18T05:27:50.544Z,35.90
2022-10-18T05:29:58.943Z,40.10
2022-10-18T05:32:07.716Z,44.30
2022-10-18T05:34:14.842Z,38.50
2022-10-18T05:36:21.303Z,40.90
2022-10-18T05:38:27.815Z,31.90
2022-10-18T05:40:40.005Z,39.30
2022-10-18T05:42:47.248Z,38.60
2022-10-18T05:44:53.944Z,33.80
2022-10-18T05:46:59.964Z,38.90
2022-10-18T05:49:06.620Z,33.90
2022-10-18T05:51:12.897Z,39.20
2022-10-18T05:53:35.750Z,33.10
2022-10-18T05:55:43.182Z,35.50
2022-10-18T05:57:52.469Z,36.20
2022-10-18T05:59:59.323Z,33.60
2022-10-18T06:02:06.030Z,37.90
2022-10-18T06:04:12.346Z,32.10
2022-10-18T06:06:18.906Z,36.10
2022-10-18T06:08:25.502Z,34.20
2022-10-18T06:10:32.077Z,27.50
2022-10-18T06:12:38.153Z,37.60
2022-10-18T06:14:45.480Z,33.50
2022-10-18T06:16:51.930Z,30.10
2022-10-18T06:19:00.935Z,32.80
2022-10-18T06:21:07.841Z,25.90
2022-10-18T06:23:13.960Z,28.60
2022-10-18T06:25:19.888Z,32.80
2022-10-18T06:27:25.970Z,25.70
2022-10-18T06:29:32.549Z,32.00
2022-10-18T06:31:38.686Z,30.10
2022-10-18T06:33:46.719Z,27.40
2022-10-18T06:35:58.087Z,33.50
2022-10-18T06:38:04.320Z,29.40
2022-10-18T06:40:11.391Z,28.00
2022-10-18T06:42:19.175Z,28.30
2022-10-18T06:44:28.108Z,26.30
2022-10-18T06:46:35.008Z,28.00
2022-10-18T06:48:42.433Z,23.40
2022-10-18T06:51:03.199Z,35.10
2022-10-18T06:53:10.089Z,38.90
2022-10-18T06:55:16.509Z,29.10
2022-10-18T06:57:23.595Z,33.10
2022-10-18T06:59:32.726Z,32.10
2022-10-18T07:01:41.005Z,28.50
2022-10-18T07:03:49.027Z,30.60
2022-10-18T07:05:55.287Z,30.20
2022-10-18T07:08:01.441Z,30.10
2022-10-18T07:10:11.185Z,26.60
2022-10-18T07:12:19.935Z,34.10
2022-10-18T07:14:29.019Z,30.60
2022-10-18T07:16:36.296Z,33.50
2022-10-18T07:18:44.988Z,31.20
2022-10-18T07:20:50.961Z,32.40
2022-10-18T07:23:00.655Z,33.90
2022-10-18T07:25:08.181Z,34.70
2022-10-18T07:27:15.126Z,32.40
2022-10-18T07:29:21.892Z,36.60
2022-10-18T07:31:28.960Z,38.40
2022-10-18T07:33:36.630Z,33.70
2022-10-18T07:35:43.009Z,33.40
2022-10-18T07:37:49.700Z,35.30
2022-10-18T07:39:56.386Z,32.30
2022-10-18T07:42:02.436Z,38.10
2022-10-18T07:44:09.415Z,39.40
2022-10-18T07:46:16.641Z,34.30
2022-10-18T07:48:23.629Z,35.50
2022-10-18T07:50:29.716Z,32.10
2022-10-18T07:52:35.880Z,32.70
2022-10-18T07:54:42.177Z,36.40
2022-10-18T07:56:48.564Z,30.00
2022-10-18T07:58:56.850Z,39.10
2022-10-18T08:01:08.385Z,35.40
2022-10-18T08:03:14.784Z,33.00
2022-10-18T08:05:21.055Z,32.70
2022-10-18T08:07:27.437Z,32.30
2022-10-18T08:09:34.046Z,35.60
2022-10-18T08:11:40.690Z,40.60
2022-10-18T08:13:47.008Z,37.40
2022-10-18T08:16:00.763Z,35.30
2022-10-18T08:18:07.089Z,32.50
2022-10-18T08:20:29.872Z,34.70
2022-10-18T08:22:36.799Z,31.80
2022-10-18T08:24:43.032Z,34.30
2022-10-18T08:26:51.519Z,36.90
2022-10-18T08:29:21.155Z,38.50
2022-10-18T08:31:24.165Z,31.60
2022-10-18T08:33:30.437Z,36.90
2022-10-18T08:35:37.170Z,40.00
2022-10-18T08:37:43.708Z,42.60
2022-10-18T08:39:49.991Z,33.70
2022-10-18T08:42:23.721Z,38.10
2022-10-18T08:44:33.197Z,34.70
2022-10-18T08:46:45.686Z,36.70
2022-10-18T08:48:56.506Z,40.40
2022-10-18T08:51:05.460Z,40.30
2022-10-18T08:53:25.980Z,37.60
2022-10-18T08:55:48.312Z,40.30
2022-10-18T08:57:54.733Z,37.90
2022-10-18T09:00:01.003Z,36.20
2022-10-18T09:02:28.356Z,37.40
2022-10-18T09:04:59.125Z,34.20
2022-10-18T09:07:40.067Z,45.10
2022-10-18T09:09:46.184Z,39.10
2022-10-18T09:12:04.094Z,40.80
2022-10-18T09:14:19.403Z,47.90
2022-10-18T09:16:47.088Z,41.50
2022-10-18T09:19:22.795Z,40.90
2022-10-18T09:21:59.923Z,39.80
2022-10-18T09:24:22.196Z,44.90
2022-10-18T09:29:12.080Z,45.90
2022-10-18T09:31:25.795Z,49.40
2022-10-18T09:33:52.775Z,59.80
2022-10-18T09:36:03.269Z,53.50
2022-10-18T09:38:14.487Z,53.70
2022-10-18T09:40:45.043Z,54.10
2022-10-18T09:43:01.709Z,56.20
2022-10-18T09:45:16.971Z,43.50
2022-10-18T09:48:09.693Z,57.30
2022-10-18T09:50:31.608Z,61.90
2022-10-18T09:52:50.823Z,59.90
2022-10-18T09:55:04.810Z,60.60
2022-10-18T09:57:29.396Z,64.70
2022-10-18T09:59:48.431Z,65.60
2022-10-18T10:01:54.774Z,75.00
2022-10-18T10:04:00.942Z,72.70
2022-10-18T10:06:18.044Z,73.00
2022-10-18T10:08:36.243Z,86.00
2022-10-18T10:10:49.136Z,81.80
2022-10-18T10:13:08.632Z,96.80
2022-10-18T10:15:29.688Z,105.00
2022-10-18T10:17:39.965Z,112.30
2022-10-18T10:20:06.409Z,119.00
2022-10-18T10:22:15.791Z,115.10
2022-10-18T10:24:46.302Z,126.10
2022-10-18T10:27:00.102Z,137.40
2022-10-18T10:29:45.084Z,145.30
2022-10-18T10:32:04.753Z,159.40
2022-10-18T10:34:16.706Z,167.00
2022-10-18T10:36:23.236Z,166.80
2022-10-18T10:38:31.694Z,167.70
2022-10-18T10:40:51.479Z,190.60
2022-10-18T10:43:18.454Z,188.20
2022-10-18T10:45:56.544Z,195.30
2022-10-18T10:48:15.634Z,189.70
2022-10-18T10:50:30.127Z,197.30
2022-10-18T10:52:36.716Z,191.40
2022-10-18T10:54:51.345Z,179.10
2022-10-18T10:57:02.710Z,170.40
2022-10-18T10:59:10.652Z,161.90
2022-10-18T11:01:32.856Z,156.70
2022-10-18T11:05:47.508Z,137.20
2022-10-18T11:08:06.831Z,147.40
2022-10-18T11:10:13.401Z,140.90
2022-10-18T11:12:26.223Z,130.80
2022-10-18T11:14:40.429Z,134.10
2022-10-18T11:17:10.626Z,140.90
2022-10-18T11:19:40.486Z,141.10
2022-10-18T11:21:46.971Z,147.80
2022-10-18T11:23:54.123Z,136.20
2022-10-18T11:26:15.330Z,141.20
2022-10-18T11:28:47.675Z,133.80
2022-10-18T11:31:16.283Z,146.50
2022-10-18T11:34:08.133Z,125.90
2022-10-18T11:36:50.397Z,130.00
2022-10-18T11:39:51.980Z,132.20
2022-10-18T11:42:04.481Z,113.20
2022-10-18T11:44:41.714Z,120.30
2022-10-18T11:47:07.122Z,112.80
2022-10-18T11:49:50.212Z,116.00
2022-10-18T11:52:30.947Z,113.80
2022-10-18T11:55:07.897Z,113.00
2022-10-18T11:57:25.836Z,101.60
2022-10-18T11:59:57.834Z,92.20
2022-10-18T12:02:18.668Z,106.70
2022-10-18T12:04:35.289Z,95.30
2022-10-18T12:06:44.561Z,100.00
2022-10-18T12:09:05.085Z,94.80
2022-10-18T12:11:23.901Z,98.80
2022-10-18T12:13:36.411Z,102.10
2022-10-18T12:15:42.816Z,96.00
2022-10-18T12:17:54.578Z,98.40
2022-10-18T12:20:09.343Z,105.40
2022-10-18T12:22:36.245Z,105.60
2022-10-18T12:24:43.947Z,104.10
2022-10-18T12:26:53.226Z,111.90
2022-10-18T12:28:59.699Z,101.60
2022-10-18T12:31:15.486Z,121.30
2022-10-18T12:33:28.840Z,116.20
2022-10-18T12:36:02.144Z,100.80
2022-10-18T12:38:39.376Z,97.30
2022-10-18T12:40:50.564Z,104.40
2022-10-18T12:42:57.901Z,103.50
2022-10-18T12:45:21.818Z,114.60
2022-10-18T12:47:29.605Z,109.40
2022-10-18T12:49:41.350Z,106.30
2022-10-18T12:51:56.765Z,99.20
2022-10-18T12:54:02.736Z,105.50
2022-10-18T12:56:42.895Z,100.80
2022-10-18T12:58:49.085Z,99.00
2022-10-18T13:00:57.547Z,100.80
2022-10-18T13:03:21.757Z,93.60
2022-10-18T13:05:54.537Z,98.50
2022-10-18T13:08:30.272Z,75.70
2022-10-18T13:10:39.124Z,88.40
2022-10-18T13:13:39.167Z,86.70
2022-10-18T13:15:50.688Z,81.00
2022-10-18T13:17:56.618Z,85.40
2022-10-18T13:20:26.654Z,85.40
2022-10-18T13:23:03.026Z,94.70
2022-10-18T13:26:06.718Z,84.40
2022-10-18T13:28:43.829Z,94.30
2022-10-18T13:31:11.785Z,86.30
2022-10-18T13:33:31.961Z,92.80
2022-10-18T13:35:53.321Z,91.30
2022-10-18T13:38:21.738Z,93.10
2022-10-18T13:40:27.927Z,86.50
2022-10-18T13:42:35.110Z,92.40
2022-10-18T13:44:43.028Z,92.60
2022-10-18T13:46:49.365Z,93.30
2022-10-18T13:49:01.806Z,101.40
2022-10-18T13:51:46.381Z,81.20
2022-10-18T13:54:30.587Z,99.10
2022-10-18T13:56:54.489Z,89.00
2022-10-18T13:59:20.102Z,94.10
2022-10-18T14:01:42.659Z,91.80
2022-10-18T14:04:01.110Z,91.70
2022-10-18T14:06:26.676Z,93.30
2022-10-18T14:08:35.689Z,85.30
2022-10-18T14:11:02.073Z,80.70
2022-10-18T14:13:20.006Z,93.40
2022-10-18T14:15:30.707Z,97.90
2022-10-18T14:18:01.435Z,99.20
2022-10-18T14:20:24.749Z,105.10
2022-10-18T14:22:42.815Z,108.10
2022-10-18T14:24:55.285Z,92.60
2022-10-18T14:27:24.271Z,104.30
2022-10-18T14:29:31.004Z,101.40
2022-10-18T14:31:37.202Z,97.40
2022-10-18T14:33:57.203Z,104.90
2022-10-18T14:36:36.317Z,98.70
2022-10-18T14:38:51.378Z,101.20
2022-10-18T14:41:09.031Z,99.00
2022-10-18T14:43:20.055Z,99.50
2022-10-18T14:45:26.412Z,95.50
2022-10-18T14:47:35.027Z,96.40
2022-10-18T14:49:46.518Z,92.70
2022-10-18T14:51:58.090Z,87.30
2022-10-18T14:54:04.913Z,86.40
2022-10-18T14:56:24.136Z,87.50
2022-10-18T14:58:30.495Z,90.10
2022-10-18T15:00:40.431Z,89.00
2022-10-18T15:02:48.982Z,82.70
2022-10-18T15:05:08.631Z,87.20
2022-10-18T15:07:18.405Z,95.70
2022-10-18T15:09:25.484Z,84.20
2022-10-18T15:11:33.014Z,88.50
2022-10-18T15:14:04.226Z,79.10
2022-10-18T15:16:19.591Z,86.30
2022-10-18T15:18:27.763Z,88.60
2022-10-18T15:20:40.434Z,86.20
2022-10-18T15:22:50.031Z,92.60
2022-10-18T15:25:32.327Z,97.80
2022-10-18T15:29:46.860Z,99.20
2022-10-18T15:31:53.995Z,97.70
2022-10-18T15:34:29.325Z,89.70
2022-10-18T15:36:37.025Z,94.00
2022-10-18T15:38:46.300Z,90.90
2022-10-18T15:40:56.006Z,89.10
2022-10-18T15:43:05.402Z,100.50
2022-10-18T15:45:26.986Z,89.80
2022-10-18T15:47:33.400Z,98.60
2022-10-18T15:49:48.435Z,113.10
2022-10-18T15:52:23.650Z,78.40
2022-10-18T15:54:33.570Z,75.60
2022-10-18T15:56:47.501Z,65.00
2022-10-18T15:58:53.871Z,67.50
2022-10-18T16:01:02.984Z,65.00
2022-10-18T16:03:10.604Z,76.50
2022-10-18T16:05:22.188Z,61.40
2022-10-18T16:07:28.558Z,69.40
2022-10-18T16:09:34.679Z,77.90
2022-10-18T16:11:40.855Z,131.00
2022-10-18T16:13:47.628Z,80.90
2022-10-18T16:15:56.764Z,60.20
2022-10-18T16:18:03.203Z,52.90
2022-10-18T16:20:21.699Z,65.40
2022-10-18T16:22:27.751Z,53.30
2022-10-18T16:24:34.294Z,52.30
2022-10-18T16:26:40.374Z,60.90
2022-10-18T16:28:47.972Z,71.20
2022-10-18T16:30:55.953Z,52.70
2022-10-18T16:33:01.859Z,55.30
2022-10-18T16:35:09.413Z,40.50
2022-10-18T16:37:15.639Z,62.60
2022-10-18T16:39:23.534Z,49.90
2022-10-18T16:41:30.490Z,58.60
2022-10-18T16:43:37.127Z,50.10
2022-10-18T16:45:43.892Z,49.00
2022-10-18T16:47:49.868Z,48.20
2022-10-18T16:49:56.070Z,48.90
2022-10-18T16:52:02.206Z,50.50
2022-10-18T16:54:08.311Z,48.60
2022-10-18T16:56:31.933Z,55.00
2022-10-18T16:58:38.009Z,54.90
2022-10-18T17:00:44.166Z,50.30
2022-10-18T17:02:51.587Z,50.90
2022-10-18T17:04:58.197Z,50.90
2022-10-18T17:07:06.118Z,54.20
2022-10-18T17:09:15.753Z,49.40
2022-10-18T17:11:24.169Z,58.80
2022-10-18T17:13:30.289Z,51.00
2022-10-18T17:15:36.762Z,54.70
2022-10-18T17:17:43.011Z,55.60
2022-10-18T17:19:49.162Z,53.40
2022-10-18T17:21:58.898Z,53.30
2022-10-18T17:24:08.322Z,51.80
2022-10-18T17:26:28.749Z,59.10
2022-10-18T17:28:35.745Z,57.30
2022-10-18T17:30:43.085Z,54.10
2022-10-18T17:32:49.508Z,59.70
2022-10-18T17:34:56.062Z,53.50
2022-10-18T17:37:02.138Z,59.10
2022-10-18T17:39:08.912Z,65.40
2022-10-18T17:41:15.460Z,65.10
2022-10-18T17:43:21.620Z,65.00
2022-10-18T17:45:28.074Z,67.40
2022-10-18T17:47:34.356Z,62.50
2022-10-18T17:49:40.522Z,60.90
2022-10-18T17:51:47.467Z,63.20
2022-10-18T17:53:53.566Z,68.80
2022-10-18T17:56:02.588Z,63.00
2022-10-18T17:58:09.196Z,66.10
2022-10-18T18:00:16.642Z,75.80
2022-10-18T18:02:22.984Z,58.90
2022-10-18T18:04:29.153Z,64.90
2022-10-18T18:06:38.023Z,60.70
2022-10-18T18:08:44.363Z,64.20
2022-10-18T18:10:56.593Z,55.20
2022-10-18T18:13:03.914Z,60.10
2022-10-18T18:15:10.395Z,57.80
2022-10-18T18:17:24.801Z,59.90
2022-10-18T18:19:40.801Z,64.10
2022-10-18T18:21:47.423Z,70.60
2022-10-18T18:23:53.948Z,61.90
2022-10-18T18:26:00.164Z,69.60
2022-10-18T18:28:07.613Z,74.70
2022-10-18T18:30:14.080Z,71.80
2022-10-18T18:32:20.851Z,76.00
2022-10-18T18:34:27.605Z,80.60
2022-10-18T18:36:34.201Z,83.70
2022-10-18T18:38:43.608Z,102.60
2022-10-18T18:40:50.386Z,85.90
2022-10-18T18:43:07.182Z,99.70
2022-10-18T18:45:23.807Z,95.10
2022-10-18T18:47:30.345Z,93.00
2022-10-18T18:49:37.004Z,93.10
2022-10-18T18:51:43.950Z,98.60
2022-10-18T18:53:50.602Z,100.10
2022-10-18T18:56:01.784Z,107.80
2022-10-18T18:58:08.178Z,97.10
2022-10-18T19:00:15.119Z,109.10
2022-10-18T19:02:21.517Z,109.30
2022-10-18T19:04:27.966Z,111.20
2022-10-18T19:06:45.297Z,108.40
2022-10-18T19:08:55.236Z,113.20
2022-10-18T19:11:01.732Z,105.50
2022-10-18T19:13:08.392Z,129.00
2022-10-18T19:15:14.494Z,119.10
2022-10-18T19:17:22.768Z,132.40
2022-10-18T19:19:31.758Z,121.50
2022-10-18T19:21:43.094Z,118.90
2022-10-18T19:23:49.749Z,145.30
2022-10-18T19:25:56.098Z,135.10
2022-10-18T19:28:02.689Z,125.50
2022-10-18T19:30:13.673Z,132.10
2022-10-18T19:32:20.315Z,124.60
2022-10-18T19:34:28.700Z,121.50
2022-10-18T19:36:35.749Z,118.50
2022-10-18T19:38:42.062Z,126.80
2022-10-18T19:40:51.591Z,129.00
2022-10-18T19:43:00.196Z,129.00
2022-10-18T19:45:07.003Z,135.70
2022-10-18T19:47:15.394Z,132.60
2022-10-18T19:49:21.657Z,137.40
2022-10-18T19:51:28.644Z,133.00
2022-10-18T19:53:35.905Z,127.10
2022-10-18T19:55:42.483Z,144.90
2022-10-18T19:57:49.181Z,136.00
2022-10-18T19:59:56.679Z,112.40
2022-10-18T20:02:05.591Z,123.00
2022-10-18T20:04:13.459Z,119.20
2022-10-18T20:06:20.630Z,125.80
2022-10-18T20:08:28.833Z,118.70
2022-10-18T20:10:35.454Z,120.30
2022-10-18T20:12:41.485Z,77.90
2022-10-18T20:14:47.703Z,117.50
2022-10-18T20:16:54.524Z,128.20
2022-10-18T20:19:03.320Z,118.10
2022-10-18T20:21:10.714Z,116.60
2022-10-18T20:23:18.188Z,107.60
2022-10-18T20:25:24.795Z,108.50
2022-10-18T20:27:33.150Z,110.20
2022-10-18T20:29:39.651Z,113.90
2022-10-18T20:31:45.695Z,94.00
2022-10-18T20:34:06.629Z,105.10
2022-10-18T20:36:18.676Z,104.20
2022-10-18T20:38:24.802Z,105.80
2022-10-18T20:40:30.860Z,98.60
2022-10-18T20:42:36.997Z,103.30
2022-10-18T20:44:44.557Z,100.30
2022-10-18T20:46:51.200Z,100.00
2022-10-18T20:48:58.130Z,102.90
2022-10-18T20:51:10.306Z,102.70
2022-10-18T20:53:17.374Z,104.40
2022-10-18T20:55:24.491Z,98.40
2022-10-18T20:57:34.275Z,103.20
2022-10-18T20:59:43.553Z,103.60
2022-10-18T21:01:49.945Z,105.60
2022-10-18T21:03:58.580Z,103.90
2022-10-18T21:06:10.502Z,108.40
2022-10-18T21:08:17.216Z,115.40
2022-10-18T21:10:24.769Z,98.60
2022-10-18T21:12:31.415Z,101.40
2022-10-18T21:14:37.527Z,102.40
2022-10-18T21:16:44.815Z,102.20
2022-10-18T21:18:51.249Z,92.50
2022-10-18T21:21:08.010Z,97.30
2022-10-18T21:23:14.117Z,95.20
2022-10-18T21:25:20.494Z,118.40
2022-10-18T21:27:26.617Z,121.00
2022-10-18T21:29:32.565Z,114.00
2022-10-18T21:31:40.923Z,104.90
2022-10-18T21:33:48.580Z,95.40
2022-10-18T21:35:54.751Z,99.40
2022-10-18T21:38:01.018Z,98.10
2022-10-18T21:40:07.756Z,96.90
2022-10-18T21:42:14.887Z,98.60
2022-10-18T21:44:21.403Z,99.40
2022-10-18T21:46:28.158Z,99.50
2022-10-18T21:48:34.258Z,98.70
2022-10-18T21:50:40.753Z,101.30
2022-10-18T21:52:47.598Z,104.80
2022-10-18T21:54:54.752Z,97.70
2022-10-18T21:57:00.843Z,97.70
2022-10-18T21:59:07.283Z,106.30
2022-10-18T22:01:22.231Z,108.90
2022-10-18T22:03:28.538Z,114.60
2022-10-18T22:05:34.792Z,114.20
2022-10-18T22:07:41.167Z,127.70
2022-10-18T22:09:47.501Z,133.30
2022-10-18T22:11:55.418Z,138.10
2022-10-18T22:14:01.934Z,128.50
2022-10-18T22:16:09.588Z,135.90
2022-10-18T22:18:15.667Z,134.20
2022-10-18T22:20:22.811Z,140.70
2022-10-18T22:22:29.688Z,150.50
2022-10-18T22:26:48.360Z,163.90
2022-10-18T22:29:04.261Z,154.20
2022-10-18T22:31:23.941Z,163.00
2022-10-18T22:33:31.142Z,163.80
2022-10-18T22:35:37.281Z,173.50
2022-10-18T22:37:43.508Z,167.20
2022-10-18T22:39:49.716Z,168.90
2022-10-18T22:41:57.815Z,165.90
2022-10-18T22:44:04.430Z,170.30
2022-10-18T22:46:16.244Z,168.60
2022-10-18T22:48:22.625Z,171.00
2022-10-18T22:50:29.012Z,179.30
2022-10-18T22:52:36.341Z,171.30
2022-10-18T22:54:43.548Z,162.20
2022-10-18T22:56:50.623Z,146.30
2022-10-18T22:58:57.966Z,142.30
2022-10-18T23:01:12.098Z,144.90
2022-10-18T23:03:20.131Z,160.30
2022-10-18T23:05:27.232Z,151.80
2022-10-18T23:07:33.436Z,162.40
2022-10-18T23:11:54.435Z,171.40
2022-10-18T23:14:02.192Z,164.00
2022-10-18T23:16:08.945Z,160.40
2022-10-18T23:18:15.551Z,162.00
2022-10-18T23:21:14.325Z,170.00
2022-10-18T23:23:46.028Z,154.40
2022-10-18T23:25:55.812Z,163.20
2022-10-18T23:28:06.788Z,156.60
2022-10-18T23:30:13.907Z,172.20
2022-10-18T23:32:21.461Z,153.80
2022-10-18T23:34:30.263Z,169.60
2022-10-18T23:36:40.391Z,156.00
2022-10-18T23:38:48.289Z,159.50
2022-10-18T23:40:55.673Z,163.50
2022-10-18T23:43:02.825Z,152.20
2022-10-18T23:45:12.065Z,152.70
2022-10-18T23:47:19.974Z,142.60
2022-10-18T23:49:29.337Z,126.50
2022-10-18T23:51:36.245Z,145.60
2022-10-18T23:53:43.226Z,137.20
2022-10-18T23:56:06.876Z,139.60
2022-10-18T23:58:14.097Z,137.70
